Time;durP1;ratioP1;P1;durP2;ratioP2;P2;SDS_P1;SDS_P2;PMS_P1;PMS_P2;Temp;Humidity;BMP_temperature;BMP_pressure;BME280_temperature;BME280_humidity;BME280_pressure;Samples;Min_cycle;Max_cycle;Signal;HPM_P1;HPM_P2
2021/08/07 00:00:37;;;;;;;2.23;2.00;;;17.40;99.90;;;;;;5076290;28;20209;-51
2021/08/07 00:03:03;;;;;;;3.80;2.33;;;17.40;99.90;;;;;;5075591;28;20183;-53
2021/08/07 00:05:28;;;;;;;2.43;2.20;;;17.40;99.90;;;;;;5076011;28;20526;-52
2021/08/07 00:07:54;;;;;;;6.23;2.17;;;17.40;99.90;;;;;;5075833;28;20185;-49
2021/08/07 00:10:19;;;;;;;2.40;2.20;;;17.40;99.90;;;;;;5075853;28;20695;-49
2021/08/07 00:12:45;;;;;;;3.20;1.80;;;17.30;99.90;;;;;;5075858;28;20183;-50
2021/08/07 00:15:11;;;;;;;3.10;2.23;;;17.30;99.90;;;;;;5075696;28;20222;-50
2021/08/07 00:17:36;;;;;;;3.63;2.60;;;17.20;99.90;;;;;;5075950;28;20174;-52
2021/08/07 00:20:03;;;;;;;3.23;2.63;;;17.20;99.90;;;;;;5075674;28;20181;-55
2021/08/07 00:22:29;;;;;;;3.00;2.20;;;17.10;99.90;;;;;;5075356;28;20171;-56
2021/08/07 00:24:55;;;;;;;2.87;2.67;;;17.10;99.90;;;;;;5075878;28;20171;-50
2021/08/07 00:27:20;;;;;;;3.43;2.50;;;17.10;99.90;;;;;;5075813;28;20224;-50
2021/08/07 00:29:46;;;;;;;2.53;2.33;;;17.00;99.90;;;;;;5075540;28;20232;-51
2021/08/07 00:32:11;;;;;;;2.43;2.23;;;16.90;99.90;;;;;;5075460;28;20217;-50
2021/08/07 00:34:37;;;;;;;3.50;2.57;;;16.90;99.90;;;;;;5075676;28;20233;-54
2021/08/07 00:37:05;;;;;;;2.20;2.00;;;16.90;99.90;;;;;;5075626;28;20174;-55
2021/08/07 00:39:31;;;;;;;3.30;2.07;;;17.00;99.90;;;;;;5075163;28;20638;-56
2021/08/07 00:41:56;;;;;;;2.50;1.97;;;16.90;99.90;;;;;;5075210;28;20219;-50
2021/08/07 00:44:22;;;;;;;2.37;2.17;;;16.90;99.90;;;;;;5075347;28;20233;-54
2021/08/07 00:46:47;;;;;;;3.93;2.40;;;16.80;99.90;;;;;;5075167;28;20175;-53
2021/08/07 00:49:13;;;;;;;3.50;2.50;;;16.80;99.90;;;;;;5075744;28;20174;-52
2021/08/07 00:51:38;;;;;;;2.50;2.27;;;16.80;99.90;;;;;;5073573;28;20228;-51
2021/08/07 00:54:04;;;;;;;4.87;2.33;;;16.80;99.90;;;;;;5074862;28;20193;-56
2021/08/07 00:56:30;;;;;;;3.00;2.40;;;16.80;99.90;;;;;;5074663;28;20198;-50
2021/08/07 00:58:55;;;;;;;2.93;2.20;;;16.80;99.90;;;;;;5075206;28;20163;-53
2021/08/07 01:01:24;;;;;;;3.23;2.10;;;16.80;99.90;;;;;;5074498;28;20194;-50
2021/08/07 01:03:54;;;;;;;2.53;2.20;;;16.80;99.90;;;;;;5074920;28;20190;-50
2021/08/07 01:06:51;;;;;;;3.00;1.87;;;16.80;99.90;;;;;;5074812;28;20178;-51
2021/08/07 01:09:16;;;;;;;3.00;2.10;;;16.80;99.90;;;;;;5074586;28;20197;-53
2021/08/07 01:11:53;;;;;;;2.47;2.27;;;16.70;99.90;;;;;;5074835;28;20175;-55
2021/08/07 01:14:24;;;;;;;2.10;2.00;;;16.70;99.90;;;;;;5074405;28;20189;-49
2021/08/07 01:16:50;;;;;;;2.20;2.00;;;16.70;99.90;;;;;;5074634;28;20177;-51
2021/08/07 01:19:18;;;;;;;2.70;2.23;;;16.60;99.90;;;;;;5074790;28;20175;-51
2021/08/07 01:22:03;;;;;;;2.57;2.10;;;16.60;99.90;;;;;;5074329;28;20236;-50
2021/08/07 01:24:43;;;;;;;6.07;2.10;;;16.60;99.90;;;;;;5074837;28;20190;-51
2021/08/07 01:27:28;;;;;;;3.10;2.20;;;16.60;99.90;;;;;;5074418;28;20174;-54
2021/08/07 01:29:55;;;;;;;2.20;2.00;;;16.60;99.90;;;;;;5074658;28;20174;-55
2021/08/07 01:32:25;;;;;;;2.17;2.07;;;16.50;99.90;;;;;;5074092;28;20177;-50
2021/08/07 01:34:53;;;;;;;3.97;2.30;;;16.60;99.90;;;;;;5074203;28;20207;-49
2021/08/07 01:37:19;;;;;;;8.20;2.20;;;16.50;99.90;;;;;;5074685;28;20181;-50
2021/08/07 01:39:47;;;;;;;2.67;2.43;;;16.50;99.90;;;;;;5074349;28;20527;-53
2021/08/07 01:42:13;;;;;;;4.03;2.60;;;16.50;99.90;;;;;;5074263;28;20179;-50
2021/08/07 01:44:38;;;;;;;3.63;2.20;;;16.50;99.90;;;;;;5074178;28;20198;-53
2021/08/07 01:47:12;;;;;;;3.60;2.37;;;16.50;99.90;;;;;;5074698;28;20182;-54
2021/08/07 01:50:04;;;;;;;2.63;2.07;;;16.40;99.90;;;;;;5073862;28;20167;-49
2021/08/07 01:52:34;;;;;;;2.33;1.97;;;16.40;99.90;;;;;;5043158;28;20530;-50
2021/08/07 01:55:04;;;;;;;2.10;2.00;;;16.40;99.90;;;;;;5073958;28;20186;-54
2021/08/07 01:57:33;;;;;;;2.70;2.37;;;16.30;99.90;;;;;;5073977;28;20198;-55
2021/08/07 01:59:59;;;;;;;2.10;1.97;;;16.30;99.90;;;;;;5073811;28;20170;-54
2021/08/07 02:02:27;;;;;;;2.30;2.10;;;16.30;99.90;;;;;;5073819;28;20166;-51
2021/08/07 02:04:53;;;;;;;2.50;1.90;;;16.30;99.90;;;;;;5073774;28;20650;-51
2021/08/07 02:07:19;;;;;;;3.00;2.50;;;16.20;99.90;;;;;;5073912;28;20236;-49
2021/08/07 02:09:45;;;;;;;3.47;2.20;;;16.20;99.90;;;;;;5073671;28;20236;-50
2021/08/07 02:12:13;;;;;;;4.87;2.10;;;16.10;99.90;;;;;;5073574;28;20292;-49
2021/08/07 02:14:42;;;;;;;2.33;2.13;;;16.10;99.90;;;;;;5074208;28;20289;-54
2021/08/07 02:17:07;;;;;;;2.80;2.60;;;16.10;99.90;;;;;;5073731;28;20174;-51
2021/08/07 02:19:37;;;;;;;2.63;2.30;;;16.00;99.90;;;;;;5073813;28;20170;-56
2021/08/07 02:22:03;;;;;;;3.27;2.60;;;16.00;99.90;;;;;;5073636;28;20657;-50
2021/08/07 02:24:29;;;;;;;4.53;3.03;;;16.10;99.90;;;;;;5073430;28;20200;-50
2021/08/07 02:26:56;;;;;;;3.83;2.63;;;16.10;99.90;;;;;;5073644;28;20257;-49
2021/08/07 02:29:23;;;;;;;3.73;2.80;;;16.10;99.90;;;;;;5073575;28;20166;-52
2021/08/07 02:31:50;;;;;;;2.70;2.50;;;16.40;99.90;;;;;;5073552;28;20244;-50
2021/08/07 02:34:17;;;;;;;3.23;2.70;;;16.10;99.90;;;;;;5073431;28;20214;-55
2021/08/07 02:36:44;;;;;;;3.03;2.63;;;16.10;99.90;;;;;;5073822;28;20634;-53
2021/08/07 02:39:10;;;;;;;3.53;2.57;;;16.10;99.90;;;;;;5074113;28;20619;-50
2021/08/07 02:41:37;;;;;;;2.70;2.50;;;16.00;99.90;;;;;;5073758;28;20167;-49
2021/08/07 02:44:03;;;;;;;2.90;2.63;;;16.00;99.90;;;;;;5073773;28;20217;-49
2021/08/07 02:46:31;;;;;;;5.13;2.50;;;16.10;99.90;;;;;;5073644;28;20167;-49
2021/08/07 02:48:57;;;;;;;8.13;2.60;;;16.10;99.90;;;;;;5073476;28;20194;-55
2021/08/07 02:51:25;;;;;;;2.43;2.23;;;16.10;99.90;;;;;;5073057;28;20265;-50
2021/08/07 02:53:51;;;;;;;2.40;2.20;;;16.10;99.90;;;;;;5068340;28;20206;-53
2021/08/07 02:56:16;;;;;;;3.37;2.57;;;16.10;99.90;;;;;;5073818;28;20208;-51
2021/08/07 02:58:42;;;;;;;4.70;2.50;;;16.10;99.90;;;;;;5073632;28;20262;-50
2021/08/07 03:01:08;;;;;;;3.47;2.50;;;16.10;99.90;;;;;;5073407;28;20269;-49
2021/08/07 03:03:34;;;;;;;2.63;2.43;;;16.10;99.90;;;;;;5073533;28;20599;-50
2021/08/07 03:05:59;;;;;;;3.87;2.10;;;16.10;99.90;;;;;;5073116;28;20227;-53
2021/08/07 03:08:25;;;;;;;4.13;2.10;;;16.10;99.90;;;;;;5073056;28;20546;-56
2021/08/07 03:10:51;;;;;;;2.47;1.80;;;16.10;99.90;;;;;;5073393;28;20166;-54
2021/08/07 03:13:17;;;;;;;4.97;2.07;;;16.10;99.90;;;;;;5073070;28;20563;-50
2021/08/07 03:15:43;;;;;;;2.77;1.93;;;16.10;99.90;;;;;;5073302;28;20659;-49
2021/08/07 03:18:08;;;;;;;2.97;1.87;;;16.00;99.90;;;;;;5073546;28;20175;-50
2021/08/07 03:20:34;;;;;;;2.60;2.10;;;16.00;99.90;;;;;;5072900;28;20175;-50
2021/08/07 03:23:04;;;;;;;2.30;2.10;;;16.00;99.90;;;;;;5072906;28;20197;-52
2021/08/07 03:25:30;;;;;;;2.80;1.80;;;15.90;99.90;;;;;;5075645;28;20182;-50
2021/08/07 03:27:56;;;;;;;1.90;1.70;;;16.80;99.90;;;;;;5076946;28;20167;-54
2021/08/07 03:30:23;;;;;;;2.93;1.87;;;15.90;99.90;;;;;;5076617;28;20217;-49
2021/08/07 03:32:49;;;;;;;1.60;1.50;;;15.90;99.90;;;;;;5076669;28;20198;-50
2021/08/07 03:35:15;;;;;;;2.40;1.83;;;15.80;99.90;;;;;;5076533;28;20198;-51
2021/08/07 03:37:41;;;;;;;1.83;1.60;;;15.80;99.90;;;;;;5076541;28;20250;-50
2021/08/07 03:40:07;;;;;;;2.13;1.70;;;15.70;99.90;;;;;;5077025;28;20504;-52
2021/08/07 03:42:33;;;;;;;3.90;1.77;;;15.70;99.90;;;;;;5075015;28;21050;-51
2021/08/07 03:44:58;;;;;;;4.50;1.77;;;15.70;99.90;;;;;;5076577;28;20220;-55
2021/08/07 03:47:24;;;;;;;1.57;1.40;;;15.70;99.90;;;;;;5076203;28;20175;-49
2021/08/07 03:49:49;;;;;;;1.70;1.57;;;15.70;99.90;;;;;;5076132;28;20171;-50
2021/08/07 03:52:15;;;;;;;2.00;1.57;;;15.60;99.90;;;;;;5076210;28;20179;-52
2021/08/07 03:54:40;;;;;;;1.50;1.40;;;15.60;99.90;;;;;;5075975;28;20221;-51
2021/08/07 03:57:06;;;;;;;2.87;1.77;;;15.60;99.90;;;;;;5076194;28;20170;-51
2021/08/07 03:59:32;;;;;;;2.10;1.80;;;15.60;99.90;;;;;;5076355;28;20519;-56
2021/08/07 04:01:57;;;;;;;1.93;1.73;;;15.60;99.90;;;;;;5075874;28;20660;-52
2021/08/07 04:04:23;;;;;;;2.27;2.07;;;15.60;99.90;;;;;;5075844;28;20195;-50
2021/08/07 04:06:48;;;;;;;2.63;2.30;;;15.60;99.90;;;;;;5075790;28;20177;-51
2021/08/07 04:09:14;;;;;;;2.80;2.17;;;15.50;99.90;;;;;;5076041;28;20185;-50
2021/08/07 04:11:39;;;;;;;3.73;2.20;;;15.50;99.90;;;;;;5075781;28;20159;-49
2021/08/07 04:14:05;;;;;;;3.13;2.10;;;15.50;99.90;;;;;;5075991;28;20197;-51
2021/08/07 04:16:32;;;;;;;2.07;1.97;;;15.50;99.90;;;;;;5076006;28;20201;-49
2021/08/07 04:18:57;;;;;;;2.27;2.07;;;15.60;99.90;;;;;;5075669;28;20194;-53
2021/08/07 04:21:23;;;;;;;2.40;1.50;;;15.70;99.90;;;;;;5075433;28;20198;-50
2021/08/07 04:23:49;;;;;;;2.97;1.97;;;15.70;99.90;;;;;;5075502;28;20190;-49
2021/08/07 04:26:14;;;;;;;1.97;1.77;;;15.80;99.90;;;;;;5075675;28;20171;-50
2021/08/07 04:28:40;;;;;;;2.17;1.97;;;15.90;99.90;;;;;;5076066;28;20236;-51
2021/08/07 04:31:06;;;;;;;4.97;2.10;;;16.00;99.90;;;;;;5075707;28;20203;-49
2021/08/07 04:33:33;;;;;;;3.27;1.87;;;16.00;99.90;;;;;;5075302;28;20197;-51
2021/08/07 04:36:00;;;;;;;2.00;1.83;;;16.00;99.90;;;;;;5075009;28;20202;-56
2021/08/07 04:38:26;;;;;;;2.00;1.90;;;16.00;99.90;;;;;;5075289;28;20221;-50
2021/08/07 04:40:51;;;;;;;2.60;2.30;;;16.00;99.90;;;;;;5075295;28;20171;-52
2021/08/07 04:43:17;;;;;;;2.30;1.80;;;16.10;99.90;;;;;;5075232;28;20236;-49
2021/08/07 04:45:42;;;;;;;1.60;1.50;;;16.10;99.90;;;;;;5075366;28;20663;-53
2021/08/07 04:48:08;;;;;;;2.07;1.90;;;16.10;99.90;;;;;;5075642;28;20175;-55
2021/08/07 04:50:35;;;;;;;1.90;1.80;;;16.20;99.90;;;;;;5075034;28;20174;-54
2021/08/07 04:53:01;;;;;;;1.90;1.80;;;16.20;99.90;;;;;;5073519;28;20206;-50
2021/08/07 04:55:27;;;;;;;1.53;1.47;;;16.20;99.90;;;;;;5074887;28;20246;-52
2021/08/07 04:57:53;;;;;;;3.07;2.00;;;16.30;99.90;;;;;;5074982;28;20167;-50
2021/08/07 05:00:19;;;;;;;2.77;2.03;;;16.30;99.90;;;;;;5072453;28;20191;-51
2021/08/07 05:02:48;;;;;;;4.97;2.17;;;16.30;99.90;;;;;;5074797;28;20175;-51
2021/08/07 05:05:15;;;;;;;4.00;2.20;;;16.40;99.90;;;;;;5071632;28;20182;-56
2021/08/07 05:07:41;;;;;;;4.47;2.30;;;16.40;99.90;;;;;;5075256;28;20646;-50
2021/08/07 05:10:09;;;;;;;3.50;2.30;;;16.50;99.90;;;;;;5073522;28;20247;-54
2021/08/07 05:12:35;;;;;;;3.80;2.00;;;16.50;99.90;;;;;;5071184;28;20273;-49
2021/08/07 05:15:00;;;;;;;3.17;2.20;;;16.60;99.90;;;;;;5084417;28;20194;-49
2021/08/07 05:17:27;;;;;;;3.57;2.70;;;16.70;99.90;;;;;;5073444;28;20223;-49
2021/08/07 05:19:53;;;;;;;2.50;2.30;;;16.80;99.90;;;;;;5075962;28;20177;-52
2021/08/07 05:22:20;;;;;;;3.13;2.10;;;17.00;99.90;;;;;;5080522;28;20185;-49
2021/08/07 05:24:45;;;;;;;3.57;2.27;;;17.10;99.90;;;;;;5074125;28;20581;-54
2021/08/07 05:27:12;;;;;;;3.43;2.30;;;17.20;99.90;;;;;;5078301;28;20706;-56
2021/08/07 05:29:37;;;;;;;2.00;1.90;;;17.40;99.90;;;;;;5090924;28;20173;-49
2021/08/07 05:32:03;;;;;;;2.57;2.17;;;17.30;99.90;;;;;;5075907;28;20542;-50
2021/08/07 05:34:29;;;;;;;2.80;2.20;;;17.40;99.90;;;;;;5084874;28;20190;-54
2021/08/07 05:36:54;;;;;;;3.17;2.53;;;17.40;99.90;;;;;;5070392;28;20705;-55
2021/08/07 05:39:20;;;;;;;3.37;2.80;;;18.00;99.90;;;;;;5069767;28;20530;-49
2021/08/07 05:41:46;;;;;;;4.07;2.77;;;17.30;99.90;;;;;;5071714;28;20187;-51
2021/08/07 05:44:11;;;;;;;2.67;2.47;;;17.20;99.90;;;;;;5073516;28;20195;-52
2021/08/07 05:46:37;;;;;;;2.60;2.33;;;17.20;99.90;;;;;;5072269;28;20170;-51
2021/08/07 05:49:03;;;;;;;2.73;2.27;;;17.30;99.90;;;;;;5073859;28;20182;-51
2021/08/07 05:51:29;;;;;;;2.60;2.40;;;17.40;99.90;;;;;;5073472;28;20188;-51
2021/08/07 05:53:55;;;;;;;2.30;2.10;;;17.50;99.90;;;;;;5073875;28;20663;-50
2021/08/07 05:56:20;;;;;;;2.20;2.00;;;17.60;99.90;;;;;;5073416;28;20240;-50
2021/08/07 05:58:46;;;;;;;2.03;1.83;;;17.70;99.90;;;;;;5073947;28;20229;-50
2021/08/07 06:01:12;;;;;;;3.67;1.93;;;17.90;99.90;;;;;;5070923;28;20183;-55
2021/08/07 06:03:37;;;;;;;2.03;1.83;;;18.00;99.90;;;;;;5070425;28;20614;-49
2021/08/07 06:06:03;;;;;;;1.77;1.67;;;18.20;99.90;;;;;;5073691;28;20183;-50
2021/08/07 06:08:29;;;;;;;2.93;1.77;;;18.30;99.90;;;;;;5073342;28;20317;-50
2021/08/07 06:10:55;;;;;;;2.90;1.80;;;18.40;99.90;;;;;;5073308;28;20201;-51
2021/08/07 06:13:22;;;;;;;2.23;1.60;;;18.50;99.90;;;;;;5073467;28;20197;-49
2021/08/07 06:15:47;;;;;;;1.90;1.70;;;18.60;99.90;;;;;;5075917;28;20341;-50
2021/08/07 06:18:13;;;;;;;1.63;1.53;;;18.60;99.90;;;;;;5093671;28;20815;-50
2021/08/07 06:20:39;;;;;;;1.80;1.70;;;18.60;99.90;;;;;;5081449;28;20185;-50
2021/08/07 06:23:04;;;;;;;1.63;1.53;;;18.60;99.90;;;;;;5073655;28;20205;-53
2021/08/07 06:25:30;;;;;;;1.40;1.30;;;18.70;99.90;;;;;;5055824;28;20217;-54
2021/08/07 06:27:56;;;;;;;2.10;1.70;;;18.90;99.90;;;;;;5073722;28;20202;-54
2021/08/07 06:30:23;;;;;;;2.00;1.37;;;19.20;99.90;;;;;;5073524;28;20523;-50
2021/08/07 06:32:49;;;;;;;1.73;1.63;;;19.40;99.90;;;;;;5076852;28;20190;-52
2021/08/07 06:35:14;;;;;;;1.80;1.70;;;19.50;99.90;;;;;;5091054;28;20212;-57
2021/08/07 06:37:40;;;;;;;1.60;1.50;;;19.60;99.90;;;;;;5072570;28;20177;-53
2021/08/07 06:40:07;;;;;;;1.77;1.67;;;19.80;99.90;;;;;;5069477;28;20282;-52
2021/08/07 06:42:33;;;;;;;2.13;1.40;;;19.80;99.90;;;;;;5071646;28;20179;-52
2021/08/07 06:44:58;;;;;;;4.37;1.40;;;19.80;99.90;;;;;;5050305;28;20190;-56
2021/08/07 06:47:24;;;;;;;1.60;1.40;;;19.70;99.90;;;;;;5081228;28;20195;-57
2021/08/07 06:49:50;;;;;;;1.73;1.30;;;19.60;99.90;;;;;;5072391;28;20175;-56
2021/08/07 06:52:16;;;;;;;2.30;1.43;;;19.60;99.90;;;;;;5072440;28;20257;-58
2021/08/07 06:54:41;;;;;;;2.30;1.60;;;19.70;99.90;;;;;;5072528;28;20198;-55
2021/08/07 06:57:07;;;;;;;1.57;1.47;;;19.70;99.90;;;;;;5072202;28;20542;-64
2021/08/07 06:59:32;;;;;;;1.80;1.47;;;19.80;99.90;;;;;;5075650;28;20608;-62
2021/08/07 07:01:58;;;;;;;2.30;1.80;;;19.70;99.90;;;;;;5077477;28;20167;-62
2021/08/07 07:04:23;;;;;;;1.77;1.67;;;19.80;99.90;;;;;;5077409;28;20282;-54
2021/08/07 07:06:49;;;;;;;2.40;1.90;;;19.80;99.90;;;;;;5077036;28;20565;-53
2021/08/07 07:09:14;;;;;;;3.30;2.00;;;19.90;99.90;;;;;;5077415;28;20192;-64
2021/08/07 07:11:40;;;;;;;2.00;1.70;;;20.00;99.90;;;;;;5076701;28;20240;-64
2021/08/07 07:14:06;;;;;;;1.80;1.63;;;19.90;99.90;;;;;;5077782;28;20191;-63
2021/08/07 07:16:32;;;;;;;2.20;2.00;;;20.10;99.90;;;;;;5077424;28;20190;-53
2021/08/07 07:18:58;;;;;;;2.20;2.00;;;20.10;99.90;;;;;;5076664;28;20175;-63
2021/08/07 07:21:23;;;;;;;2.10;1.90;;;20.20;99.90;;;;;;5076890;28;20166;-58
2021/08/07 07:23:49;;;;;;;3.17;2.10;;;20.80;99.90;;;;;;5075797;28;20260;-64
2021/08/07 07:26:14;;;;;;;2.00;1.90;;;20.20;99.90;;;;;;5076293;28;20242;-60
2021/08/07 07:28:40;;;;;;;2.40;2.00;;;20.20;99.90;;;;;;5076104;28;20183;-64
2021/08/07 07:31:05;;;;;;;2.37;1.90;;;20.30;99.90;;;;;;5076827;28;20179;-53
2021/08/07 07:33:31;;;;;;;2.63;1.93;;;20.40;99.90;;;;;;5076418;28;20195;-60
2021/08/07 07:35:57;;;;;;;2.10;1.90;;;20.50;99.90;;;;;;5076214;28;20289;-59
2021/08/07 07:38:22;;;;;;;3.03;2.20;;;20.50;99.90;;;;;;5076736;28;20171;-59
2021/08/07 07:40:48;;;;;;;5.37;2.37;;;20.60;99.90;;;;;;5077099;28;20171;-65
2021/08/07 07:43:14;;;;;;;2.90;2.13;;;20.70;99.90;;;;;;5076177;28;20203;-62
2021/08/07 07:45:40;;;;;;;4.13;2.13;;;20.80;99.90;;;;;;5077412;28;20187;-55
2021/08/07 07:48:06;;;;;;;2.30;2.10;;;20.80;99.90;;;;;;5076291;28;20706;-54
2021/08/07 07:50:31;;;;;;;3.27;2.50;;;20.70;99.90;;;;;;5076114;28;20202;-60
2021/08/07 07:52:57;;;;;;;2.70;2.13;;;20.70;99.90;;;;;;5076020;28;20272;-64
2021/08/07 07:55:23;;;;;;;3.73;2.37;;;20.90;99.90;;;;;;5076591;28;20202;-60
2021/08/07 07:57:48;;;;;;;3.60;1.70;;;20.90;99.90;;;;;;5076496;28;20214;-65
2021/08/07 08:00:14;;;;;;;4.63;2.35;;;20.80;99.90;;;;;;5076510;28;20194;-60
2021/08/07 08:02:39;;;;;;;2.47;2.03;;;20.90;99.90;;;;;;5076033;28;20181;-58
2021/08/07 08:05:05;;;;;;;2.70;2.15;;;21.30;99.90;;;;;;5076103;28;20183;-65
2021/08/07 08:07:31;;;;;;;2.38;2.00;;;21.60;99.90;;;;;;5076462;28;20620;-64
2021/08/07 08:09:56;;;;;;;3.30;2.17;;;21.80;99.90;;;;;;5075076;28;20694;-56
2021/08/07 08:12:22;;;;;;;2.42;1.92;;;21.70;99.90;;;;;;5075975;28;20176;-65
2021/08/07 08:14:47;;;;;;;2.10;1.80;;;21.90;99.90;;;;;;5075695;28;20801;-60
2021/08/07 08:17:13;;;;;;;2.38;1.75;;;22.30;99.90;;;;;;5075706;28;20166;-65
2021/08/07 08:19:41;;;;;;;4.05;2.00;;;22.50;99.90;;;;;;5075347;28;20711;-55
2021/08/07 08:22:07;;;;;;;1.98;1.77;;;22.90;99.90;;;;;;5074954;28;20174;-56
2021/08/07 08:24:32;;;;;;;2.15;1.90;;;23.20;99.90;;;;;;5075454;28;20194;-62
2021/08/07 08:26:58;;;;;;;1.85;1.55;;;23.50;99.90;;;;;;5077524;28;20645;-62
2021/08/07 08:29:23;;;;;;;2.42;1.70;;;23.80;99.90;;;;;;5076105;28;20504;-59
2021/08/07 08:31:49;;;;;;;2.38;1.77;;;24.20;99.90;;;;;;5074849;28;20261;-59
2021/08/07 08:34:15;;;;;;;4.00;2.25;;;24.40;99.90;;;;;;5075623;28;20194;-60
2021/08/07 08:36:40;;;;;;;3.47;1.90;;;24.60;99.90;;;;;;5075226;28;20536;-63
2021/08/07 08:39:06;;;;;;;2.40;1.88;;;24.70;99.90;;;;;;5075626;28;20195;-55
2021/08/07 08:41:36;;;;;;;2.95;2.00;;;24.60;99.90;;;;;;5073951;28;20689;-55
2021/08/07 08:44:02;;;;;;;3.65;2.53;;;24.40;99.90;;;;;;5075722;28;20658;-63
2021/08/07 08:46:27;;;;;;;3.42;2.03;;;24.30;99.90;;;;;;5075915;28;20282;-59
2021/08/07 08:48:54;;;;;;;2.83;2.10;;;24.40;99.90;;;;;;5075484;28;20262;-64
2021/08/07 08:51:25;;;;;;;4.63;2.65;;;24.70;99.90;;;;;;5074631;28;20261;-59
2021/08/07 08:53:51;;;;;;;4.20;2.10;;;24.80;99.90;;;;;;5076006;28;20244;-57
2021/08/07 08:56:17;;;;;;;2.92;1.80;;;24.90;99.90;;;;;;5075496;28;20708;-59
2021/08/07 08:58:44;;;;;;;2.47;1.83;;;25.00;99.90;;;;;;5075559;28;20171;-64
2021/08/07 09:01:09;;;;;;;3.08;2.10;;;25.10;99.90;;;;;;5075474;28;20174;-64
2021/08/07 09:03:35;;;;;;;2.38;2.10;;;25.20;99.90;;;;;;5075068;28;20202;-56
2021/08/07 09:06:01;;;;;;;3.88;2.13;;;25.00;99.90;;;;;;5074690;28;20176;-59
2021/08/07 09:08:26;;;;;;;2.92;1.90;;;24.70;99.90;;;;;;5074661;28;20245;-52
2021/08/07 09:11:16;;;;;;;1.98;1.70;;;24.30;99.90;;;;;;5074924;28;20160;-54
2021/08/07 09:13:42;;;;;;;1.92;1.60;;;24.00;99.90;;;;;;5074923;28;20206;-56
2021/08/07 09:16:10;;;;;;;1.77;1.67;;;23.80;99.90;;;;;;5074921;28;20187;-63
2021/08/07 09:18:37;;;;;;;1.83;1.67;;;23.80;99.90;;;;;;5074881;28;20285;-64
2021/08/07 09:21:14;;;;;;;3.90;1.35;;;23.70;99.90;;;;;;5074509;28;20627;-55
2021/08/07 09:23:41;;;;;;;2.20;1.70;;;23.90;99.90;;;;;;5073798;28;20276;-63
2021/08/07 09:26:17;;;;;;;3.58;2.15;;;24.10;99.90;;;;;;5074950;28;20610;-63
2021/08/07 09:28:48;;;;;;;6.13;2.85;;;24.20;99.90;;;;;;5074932;28;20246;-55
2021/08/07 09:31:15;;;;;;;7.65;3.38;;;23.90;99.90;;;;;;5074541;28;20224;-63
2021/08/07 09:33:40;;;;;;;8.65;4.28;;;24.00;99.90;;;;;;5074635;28;20191;-63
2021/08/07 09:36:06;;;;;;;3.83;2.20;;;24.30;99.90;;;;;;5074169;28;20215;-64
2021/08/07 09:38:31;;;;;;;1.70;1.55;;;24.30;99.90;;;;;;5074351;28;21068;-58
2021/08/07 09:41:05;;;;;;;8.30;3.35;;;24.20;99.90;;;;;;5074338;28;20178;-55
2021/08/07 09:43:47;;;;;;;1.92;1.70;;;24.40;99.90;;;;;;5073787;28;20183;-54
2021/08/07 09:46:21;;;;;;;2.30;1.80;;;24.50;99.90;;;;;;5074123;28;20661;-63
2021/08/07 09:48:51;;;;;;;2.78;1.80;;;24.50;99.90;;;;;;5074039;28;20195;-58
2021/08/07 09:51:27;;;;;;;2.55;1.88;;;24.60;99.90;;;;;;5073684;28;20642;-58
2021/08/07 09:54:04;;;;;;;2.17;1.67;;;24.70;99.90;;;;;;5074393;28;20198;-55
2021/08/07 09:56:50;;;;;;;3.10;1.58;;;24.90;99.90;;;;;;5074411;28;20194;-64
2021/08/07 09:59:18;;;;;;;1.65;1.23;;;25.00;99.90;;;;;;5074104;28;20167;-63
2021/08/07 10:01:49;;;;;;;2.25;1.63;;;25.00;99.90;;;;;;5073629;28;20187;-55
2021/08/07 10:04:16;;;;;;;1.38;1.27;;;25.00;99.90;;;;;;5073977;28;20197;-54
2021/08/07 10:06:43;;;;;;;1.60;1.50;;;25.20;99.90;;;;;;5074244;28;20522;-64
2021/08/07 10:09:10;;;;;;;1.45;1.30;;;25.30;99.90;;;;;;5073938;28;20182;-63
2021/08/07 10:11:35;;;;;;;2.28;1.70;;;25.30;99.90;;;;;;5073895;28;20241;-63
2021/08/07 10:14:02;;;;;;;1.83;1.48;;;25.30;99.90;;;;;;5073792;28;20199;-60
2021/08/07 10:16:30;;;;;;;2.25;1.75;;;25.10;99.90;;;;;;5073545;28;20194;-54
2021/08/07 10:18:57;;;;;;;1.88;1.65;;;25.10;99.90;;;;;;5074589;28;20523;-63
2021/08/07 10:21:23;;;;;;;2.42;1.83;;;25.20;99.90;;;;;;5073314;28;20162;-63
2021/08/07 10:23:53;;;;;;;1.60;1.50;;;25.30;99.90;;;;;;5074425;28;20190;-62
2021/08/07 10:26:21;;;;;;;2.25;1.60;;;25.30;99.90;;;;;;5073588;28;20185;-63
2021/08/07 10:29:07;;;;;;;2.38;1.85;;;25.50;99.90;;;;;;5073517;28;20691;-63
2021/08/07 10:31:36;;;;;;;1.70;1.38;;;25.80;99.90;;;;;;5073411;28;20196;-63
2021/08/07 10:34:06;;;;;;;2.00;1.83;;;25.90;99.90;;;;;;5076076;28;20202;-64
2021/08/07 10:36:34;;;;;;;1.42;1.33;;;25.80;99.90;;;;;;5077644;28;20195;-60
2021/08/07 10:39:02;;;;;;;1.85;1.48;;;26.00;99.90;;;;;;5076259;28;20204;-57
2021/08/07 10:41:29;;;;;;;1.40;1.30;;;26.20;99.90;;;;;;5077701;28;20213;-57
2021/08/07 10:43:57;;;;;;;1.98;1.30;;;26.10;99.90;;;;;;5077344;28;20206;-63
2021/08/07 10:46:23;;;;;;;1.30;1.20;;;26.20;99.90;;;;;;5077437;28;20167;-52
2021/08/07 10:48:51;;;;;;;1.63;1.27;;;26.20;99.90;;;;;;5077435;28;20223;-64
2021/08/07 10:51:22;;;;;;;4.28;1.70;;;26.50;99.90;;;;;;5077095;28;20218;-58
2021/08/07 10:54:16;;;;;;;1.98;1.70;;;26.60;99.90;;;;;;5077327;28;20195;-59
2021/08/07 10:56:43;;;;;;;1.20;1.10;;;26.90;99.90;;;;;;5077180;28;20213;-57
2021/08/07 10:59:12;;;;;;;1.40;1.30;;;27.00;99.90;;;;;;5077152;28;20546;-56
2021/08/07 11:01:39;;;;;;;4.57;2.63;;;27.00;99.90;;;;;;5077655;28;20170;-59
2021/08/07 11:04:14;;;;;;;3.08;1.90;;;27.10;99.90;;;;;;5076961;28;20546;-64
2021/08/07 11:06:43;;;;;;;4.15;2.20;;;27.10;99.90;;;;;;5077239;28;20182;-60
2021/08/07 11:09:14;;;;;;;3.40;1.50;;;27.20;99.90;;;;;;5076807;28;20227;-64
2021/08/07 11:11:41;;;;;;;2.72;1.95;;;27.20;99.90;;;;;;5077093;28;20155;-59
2021/08/07 11:14:21;;;;;;;2.88;1.42;;;27.40;99.90;;;;;;5077643;28;20198;-58
2021/08/07 11:17:02;;;;;;;5.28;2.15;;;27.60;99.90;;;;;;5076944;28;20575;-60
2021/08/07 11:19:50;;;;;;;2.38;1.88;;;27.80;99.90;;;;;;5077530;28;20163;-58
2021/08/07 11:22:16;;;;;;;1.98;1.58;;;27.90;99.90;;;;;;5076845;28;20222;-64
2021/08/07 11:24:55;;;;;;;1.67;1.58;;;27.80;99.90;;;;;;5077357;28;20196;-59
2021/08/07 11:27:41;;;;;;;2.63;1.70;;;28.10;99.90;;;;;;5077042;28;20155;-56
2021/08/07 11:30:36;;;;;;;2.67;1.63;;;28.30;99.90;;;;;;5076786;28;20178;-64
2021/08/07 11:33:03;;;;;;;2.13;1.80;;;28.60;99.90;;;;;;5076453;28;20585;-63
2021/08/07 11:35:31;;;;;;;1.35;1.25;;;28.60;99.90;;;;;;5076960;28;20297;-64
2021/08/07 11:38:09;;;;;;;2.03;1.40;;;28.40;99.90;;;;;;5076252;28;20233;-60
2021/08/07 11:40:51;;;;;;;2.33;1.70;;;28.30;99.90;;;;;;5076572;28;20258;-64
2021/08/07 11:43:21;;;;;;;2.75;1.65;;;28.20;99.90;;;;;;5076411;28;20277;-62
2021/08/07 11:45:50;;;;;;;1.52;1.30;;;28.10;99.90;;;;;;5075765;28;20163;-64
2021/08/07 11:48:38;;;;;;;3.25;1.25;;;28.10;99.90;;;;;;5076613;28;20171;-55
2021/08/07 11:51:09;;;;;;;1.40;1.30;;;28.00;99.90;;;;;;5076274;28;20668;-56
2021/08/07 11:53:38;;;;;;;3.30;1.40;;;28.20;99.90;;;;;;5076592;28;20206;-60
2021/08/07 11:56:07;;;;;;;1.75;1.65;;;28.30;99.90;;;;;;5076011;28;20297;-64
2021/08/07 11:58:41;;;;;;;3.08;1.60;;;28.50;99.90;;;;;;5076401;28;20682;-64
2021/08/07 12:01:07;;;;;;;1.60;1.50;;;28.60;99.90;;;;;;5071080;28;20188;-63
2021/08/07 12:03:44;;;;;;;1.50;1.40;;;28.80;99.90;;;;;;5075886;28;20199;-63
2021/08/07 12:06:11;;;;;;;2.40;1.77;;;28.90;99.90;;;;;;5076542;28;20178;-63
2021/08/07 12:08:37;;;;;;;1.70;1.60;;;29.30;99.90;;;;;;5075866;28;20195;-64
2021/08/07 12:11:08;;;;;;;1.50;1.40;;;29.70;99.90;;;;;;5076227;28;20246;-59
2021/08/07 12:13:35;;;;;;;1.35;1.23;;;29.70;99.90;;;;;;5075932;28;20674;-64
2021/08/07 12:16:04;;;;;;;1.50;1.35;;;29.50;99.90;;;;;;5075765;28;20574;-64
2021/08/07 12:18:42;;;;;;;1.50;1.40;;;29.30;99.90;;;;;;5075758;28;20179;-64
2021/08/07 12:21:09;;;;;;;2.28;1.65;;;28.90;99.90;;;;;;5075758;28;20174;-63
2021/08/07 12:23:44;;;;;;;2.55;1.38;;;28.60;99.90;;;;;;5075898;28;20194;-64
2021/08/07 12:26:11;;;;;;;2.67;1.80;;;28.40;99.90;;;;;;5075820;28;20190;-58
2021/08/07 12:28:36;;;;;;;2.75;1.55;;;28.30;99.90;;;;;;5075360;28;20627;-64
2021/08/07 12:31:02;;;;;;;1.40;1.30;;;28.30;99.90;;;;;;5075785;28;20626;-59
2021/08/07 12:33:33;;;;;;;2.55;1.60;;;28.50;99.90;;;;;;5075147;28;20266;-56
2021/08/07 12:36:20;;;;;;;2.15;1.70;;;28.60;99.90;;;;;;5075446;28;20664;-64
2021/08/07 12:38:51;;;;;;;2.65;1.83;;;28.70;99.90;;;;;;5075671;28;20189;-64
2021/08/07 12:41:21;;;;;;;1.70;1.60;;;28.60;99.90;;;;;;5075845;28;20220;-58
2021/08/07 12:43:48;;;;;;;2.10;1.90;;;28.50;99.90;;;;;;5075365;28;20234;-64
2021/08/07 12:46:15;;;;;;;1.70;1.60;;;28.50;99.90;;;;;;5075242;28;20193;-64
2021/08/07 12:48:59;;;;;;;2.15;1.48;;;28.70;99.90;;;;;;5075157;28;20171;-64
2021/08/07 12:51:31;;;;;;;1.95;1.60;;;29.10;99.90;;;;;;5075162;28;20236;-64